Time;durP1;ratioP1;P1;durP2;ratioP2;P2;SDS_P1;SDS_P2;PMS_P1;PMS_P2;Temp;Humidity;BMP_temperature;BMP_pressure;BME280_temperature;BME280_humidity;BME280_pressure;Samples;Min_cycle;Max_cycle;Signal;HPM_P1;HPM_P2
2023/08/16 00:00:55;;;;;;;5.63;2.63;;;;;;;-146.25;100.00;52126.91;2089749;28;20038;-64
2023/08/16 00:01:57;;;;;;;4.88;2.50;;;;;;;-146.25;100.00;52151.25;2088432;28;35351;-64
2023/08/16 00:03:04;;;;;;;6.95;2.15;;;;;;;-146.25;100.00;52141.13;2088193;28;36259;-64
2023/08/16 00:04:06;;;;;;;6.38;2.42;;;;;;;-146.25;100.00;52128.94;2088412;28;33856;-64
2023/08/16 00:05:08;;;;;;;4.38;2.45;;;;;;;-146.25;100.00;52167.47;2088202;28;38039;-64
2023/08/16 00:06:14;;;;;;;6.85;2.88;;;;;;;-146.25;100.00;52185.72;2087644;28;37874;-64
2023/08/16 00:07:19;;;;;;;5.00;2.55;;;;;;;-146.25;100.00;52157.34;2088768;28;34235;-64
2023/08/16 00:08:20;;;;;;;6.40;2.90;;;;;;;-146.25;100.00;52159.34;2095264;28;37365;-64
2023/08/16 00:09:22;;;;;;;5.22;2.60;;;;;;;-146.25;100.00;52130.97;2089503;28;20856;-64
2023/08/16 00:10:24;;;;;;;8.45;2.78;;;;;;;-146.25;100.00;52149.22;2088221;28;38685;-64
2023/08/16 00:11:26;;;;;;;4.13;2.08;;;;;;;-146.25;100.00;52141.13;2088314;28;34542;-64
2023/08/16 00:12:27;;;;;;;5.57;2.55;;;;;;;-146.25;100.00;52157.34;2088182;28;33973;-64
2023/08/16 00:13:31;;;;;;;7.00;2.50;;;;;;;-146.25;100.00;52143.13;2089018;28;31221;-64
2023/08/16 00:14:33;;;;;;;6.38;2.58;;;;;;;-146.25;100.00;52149.22;2089174;28;20038;-63
2023/08/16 00:15:35;;;;;;;3.92;2.28;;;;;;;-146.25;100.00;52159.34;2088247;28;37111;-64
2023/08/16 00:16:37;;;;;;;5.45;2.33;;;;;;;-146.25;100.00;52157.34;2088449;28;37406;-64
2023/08/16 00:17:39;;;;;;;5.55;2.40;;;;;;;-146.25;100.00;52171.53;2088297;28;34475;-64
2023/08/16 00:18:41;;;;;;;6.18;2.83;;;;;;;-146.25;100.00;52165.44;2087991;28;31816;-64
2023/08/16 00:19:45;;;;;;;4.90;2.45;;;;;;;-146.25;100.00;52137.06;2088263;28;36153;-64
2023/08/16 00:20:46;;;;;;;8.27;2.47;;;;;;;-146.25;100.00;52128.94;2088214;28;34610;-64
2023/08/16 00:21:48;;;;;;;4.40;2.05;;;;;;;-146.25;100.00;52128.94;2087559;28;36304;-64
2023/08/16 00:22:52;;;;;;;5.10;2.75;;;;;;;-146.25;100.00;52151.25;2089024;28;36446;-63
2023/08/16 00:23:54;;;;;;;3.63;2.35;;;;;;;-146.25;100.00;52187.75;2088090;28;38652;-64
2023/08/16 00:24:56;;;;;;;4.13;3.03;;;;;;;-146.25;100.00;52098.53;2088553;28;34444;-64
2023/08/16 00:25:58;;;;;;;5.20;2.15;;;;;;;-146.25;100.00;52139.09;2088227;28;34250;-63
2023/08/16 00:26:59;;;;;;;4.78;2.70;;;;;;;-146.25;100.00;52130.97;2088109;28;38590;-64
2023/08/16 00:28:06;;;;;;;4.35;2.70;;;;;;;-146.25;100.00;52116.78;2089106;28;20053;-64
2023/08/16 00:29:08;;;;;;;6.53;2.50;;;;;;;-146.25;100.00;52133.00;2088758;28;26807;-63
2023/08/16 00:30:11;;;;;;;7.28;2.65;;;;;;;-146.25;100.00;52185.72;2088838;28;20038;-64
2023/08/16 00:31:13;;;;;;;4.30;2.10;;;;;;;-146.25;100.00;52147.19;2088258;28;20159;-63
2023/08/16 00:32:15;;;;;;;3.58;1.85;;;;;;;-146.25;100.00;52161.38;2080124;28;20164;-64
2023/08/16 00:33:17;;;;;;;6.28;2.05;;;;;;;-146.25;100.00;52126.91;2079666;28;25485;-64
2023/08/16 00:34:19;;;;;;;4.20;2.17;;;;;;;-146.25;100.00;52110.69;2088285;28;20076;-64
2023/08/16 00:35:20;;;;;;;4.47;2.10;;;;;;;-146.25;100.00;52165.44;2088021;28;20041;-64
2023/08/16 00:36:23;;;;;;;4.95;2.30;;;;;;;-146.25;100.00;52218.16;2080127;28;20057;-63
2023/08/16 00:37:27;;;;;;;3.97;2.60;;;;;;;-146.25;100.00;52147.19;2087555;28;30608;-64
2023/08/16 00:38:29;;;;;;;5.97;2.50;;;;;;;-146.25;100.00;52157.34;2088605;28;27343;-63
2023/08/16 00:39:33;;;;;;;2.03;1.70;;;;;;;-146.25;100.00;52165.44;2087718;28;24726;-63
2023/08/16 00:40:36;;;;;;;3.80;2.38;;;;;;;-146.25;100.00;52149.22;2088263;28;20811;-64
2023/08/16 00:41:37;;;;;;;4.95;2.53;;;;;;;-146.25;100.00;52147.19;2079563;28;20061;-65
2023/08/16 00:42:39;;;;;;;4.72;2.40;;;;;;;-146.25;100.00;52128.94;2087877;28;29509;-64
2023/08/16 00:43:41;;;;;;;5.38;2.50;;;;;;;-146.25;100.00;52143.13;2088818;28;20029;-63
2023/08/16 00:44:44;;;;;;;7.93;2.60;;;;;;;-146.25;100.00;52167.47;2088996;28;20080;-64
2023/08/16 00:45:48;;;;;;;5.13;3.15;;;;;;;-146.25;100.00;52155.31;2088374;28;28840;-64
2023/08/16 00:46:53;;;;;;;6.88;3.33;;;;;;;-146.25;100.00;52183.69;2088570;28;24500;-65
2023/08/16 00:47:59;;;;;;;7.82;3.30;;;;;;;-146.25;100.00;52139.09;2088392;28;20068;-65
2023/08/16 00:49:04;;;;;;;7.90;3.00;;;;;;;-146.25;100.00;52143.13;2088693;28;20165;-64
2023/08/16 00:50:10;;;;;;;9.00;3.20;;;;;;;-146.25;100.00;52133.00;2079207;28;35260;-64
2023/08/16 00:51:13;;;;;;;5.15;3.38;;;;;;;-146.25;100.00;52165.44;2072836;28;33337;-65
2023/08/16 00:52:16;;;;;;;7.50;3.40;;;;;;;-146.25;100.00;52141.13;2080144;28;20863;-64
2023/08/16 00:53:18;;;;;;;5.70;2.40;;;;;;;-146.25;100.00;52153.28;2079835;28;34249;-63
2023/08/16 00:54:20;;;;;;;6.40;3.10;;;;;;;-146.25;100.00;52153.28;2079274;28;22886;-63
2023/08/16 00:55:23;;;;;;;4.75;3.17;;;;;;;-146.25;100.00;52181.66;2063663;28;24578;-64
2023/08/16 00:56:24;;;;;;;4.68;2.67;;;;;;;-146.25;100.00;52191.81;2079407;28;32340;-63
2023/08/16 00:57:26;;;;;;;5.22;2.90;;;;;;;-146.25;100.00;52159.34;2087271;28;30813;-63
2023/08/16 00:58:28;;;;;;;7.45;2.80;;;;;;;-146.25;100.00;52104.63;2079586;28;29606;-65
2023/08/16 00:59:30;;;;;;;5.35;2.63;;;;;;;-146.25;100.00;52163.41;2087370;28;20088;-64
2023/08/16 01:00:32;;;;;;;4.88;2.85;;;;;;;-146.25;100.00;52128.94;2087500;28;32839;-64
2023/08/16 01:01:34;;;;;;;6.93;2.80;;;;;;;-146.25;100.00;52133.00;2087711;28;27154;-64
2023/08/16 01:02:39;;;;;;;7.47;3.75;;;;;;;-146.25;100.00;52163.41;2087412;28;32254;-64
2023/08/16 01:03:43;;;;;;;5.95;3.55;;;;;;;-146.25;100.00;52130.97;2087797;28;20056;-64
2023/08/16 01:04:47;;;;;;;7.13;3.28;;;;;;;-146.25;100.00;52139.09;2087377;28;33789;-65
2023/08/16 01:05:49;;;;;;;5.22;3.20;;;;;;;-146.25;100.00;52116.78;2079530;28;20046;-62
2023/08/16 01:06:57;;;;;;;5.47;4.10;;;;;;;-146.25;100.00;52165.44;2080002;28;20123;-64
2023/08/16 01:08:01;;;;;;;7.03;3.20;;;;;;;-146.25;100.00;52183.69;2088160;28;20044;-64
2023/08/16 01:09:04;;;;;;;6.53;2.88;;;;;;;-146.25;100.00;52183.69;2088457;28;20155;-65
2023/08/16 01:10:08;;;;;;;5.50;2.88;;;;;;;-146.25;100.00;52124.91;2088363;28;27583;-63
2023/08/16 01:11:18;;;;;;;8.00;3.05;;;;;;;-146.25;100.00;52143.13;2087965;28;28983;-64
2023/08/16 01:12:55;;;;;;;6.28;3.30;;;;;;;-146.25;100.00;52163.41;2087307;28;26201;-64
2023/08/16 01:14:09;;;;;;;4.60;2.63;;;;;;;-146.25;100.00;52173.56;2088386;28;20264;-64
2023/08/16 01:15:29;;;;;;;5.88;3.00;;;;;;;-146.25;100.00;52141.13;2079787;28;20045;-63
2023/08/16 01:16:36;;;;;;;7.70;3.42;;;;;;;-146.25;100.00;52165.44;2084444;28;20045;-65
2023/08/16 01:17:40;;;;;;;6.00;3.17;;;;;;;-146.25;100.00;52161.38;2088693;28;20065;-63
2023/08/16 01:18:42;;;;;;;5.43;3.25;;;;;;;-146.25;100.00;52163.41;2078944;28;28501;-64
2023/08/16 01:19:45;;;;;;;4.32;2.78;;;;;;;-146.25;100.00;52167.47;2071175;28;31169;-63
2023/08/16 01:20:48;;;;;;;7.65;3.03;;;;;;;-146.25;100.00;52157.34;2087938;28;20041;-64
2023/08/16 01:22:02;;;;;;;4.93;3.30;;;;;;;-146.25;100.00;52151.25;2079848;28;20890;-64
2023/08/16 01:23:19;;;;;;;8.30;3.95;;;;;;;-146.25;100.00;52208.03;2073185;28;28567;-64
2023/08/16 01:24:30;;;;;;;4.88;2.55;;;;;;;-146.25;100.00;52149.22;2075351;28;20074;-64
2023/08/16 01:25:50;;;;;;;;;;;;;;;-146.25;100.00;52153.28;2081177;28;29503;-63
2023/08/16 01:26:55;;;;;;;4.90;2.80;;;;;;;-146.25;100.00;52149.22;2084448;28;20306;-64
2023/08/16 01:27:59;;;;;;;3.60;3.00;;;;;;;-146.25;100.00;52181.66;2071179;28;37137;-63
2023/08/16 01:29:04;;;;;;;4.25;3.00;;;;;;;-146.25;100.00;52161.38;2072510;28;20859;-63
2023/08/16 01:30:09;;;;;;;5.75;3.25;;;;;;;-146.25;100.00;52179.63;2078924;28;38838;-64
2023/08/16 01:31:14;;;;;;;5.70;3.00;;;;;;;-146.25;100.00;52159.34;2072716;28;20038;-64
2023/08/16 01:32:16;;;;;;;8.07;3.17;;;;;;;-146.25;100.00;52133.00;2072226;28;28810;-65
2023/08/16 01:33:17;;;;;;;5.10;3.22;;;;;;;-146.25;100.00;52153.28;2078890;28;33673;-64
2023/08/16 01:34:21;;;;;;;6.70;3.42;;;;;;;-146.25;100.00;52124.91;2079285;28;20085;-64
2023/08/16 01:35:23;;;;;;;7.05;4.18;;;;;;;-146.25;100.00;52151.25;2078983;28;34136;-64
2023/08/16 01:36:27;;;;;;;6.95;4.40;;;;;;;-146.25;100.00;52120.84;2079233;28;28751;-63
2023/08/16 01:37:29;;;;;;;7.47;4.55;;;;;;;-146.25;100.00;52135.03;2079629;28;20824;-64
2023/08/16 01:38:31;;;;;;;4.38;3.85;;;;;;;-146.25;100.00;52157.34;2079848;28;32496;-64
2023/08/16 01:39:38;;;;;;;5.22;3.63;;;;;;;-146.25;100.00;52137.06;2079709;28;20866;-63
2023/08/16 01:41:02;;;;;;;4.85;2.85;;;;;;;-146.25;100.00;52165.44;2079153;28;35961;-64
2023/08/16 01:42:08;;;;;;;5.78;3.58;;;;;;;-146.25;100.00;52133.00;2080210;28;20111;-64
2023/08/16 01:43:13;;;;;;;6.32;3.72;;;;;;;-146.25;100.00;52159.34;2064451;28;22800;-62
2023/08/16 01:44:18;;;;;;;10.25;4.82;;;;;;;-146.25;100.00;52135.03;2065021;28;20178;-64
2023/08/16 01:45:24;;;;;;;5.13;4.45;;;;;;;-146.25;100.00;52153.28;2080081;28;20862;-63
2023/08/16 01:46:27;;;;;;;7.68;4.18;;;;;;;-146.25;100.00;52141.13;2070987;28;22333;-64
2023/08/16 01:47:30;;;;;;;6.05;4.00;;;;;;;-146.25;100.00;52153.28;2063373;28;32187;-63
2023/08/16 01:48:33;;;;;;;6.28;3.75;;;;;;;-146.25;100.00;52157.34;2071890;28;20159;-64
2023/08/16 01:49:36;;;;;;;3.83;2.75;;;;;;;-146.25;100.00;52098.53;2079023;28;27856;-64
2023/08/16 01:50:40;;;;;;;6.55;3.33;;;;;;;-146.25;100.00;52161.38;2088344;28;28920;-63
2023/08/16 01:51:42;;;;;;;6.65;3.42;;;;;;;-146.25;100.00;52187.75;2087180;28;29945;-65
2023/08/16 01:52:44;;;;;;;6.03;3.45;;;;;;;-146.25;100.00;52169.50;2087477;28;29104;-65
2023/08/16 01:53:53;;;;;;;5.70;3.70;;;;;;;-146.25;100.00;52163.41;2087766;28;27962;-63
2023/08/16 01:54:55;;;;;;;6.70;3.10;;;;;;;-146.25;100.00;52149.22;2087393;28;23730;-64
2023/08/16 01:55:57;;;;;;;3.53;2.40;;;;;;;-146.25;100.00;52167.47;2087866;28;24429;-66
2023/08/16 01:56:58;;;;;;;4.70;2.90;;;;;;;-146.25;100.00;52177.59;2087841;28;20033;-65
2023/08/16 01:58:02;;;;;;;5.55;3.78;;;;;;;-146.25;100.00;52161.38;2079255;28;20116;-65
2023/08/16 01:59:04;;;;;;;5.07;3.20;;;;;;;-146.25;100.00;52149.22;2079881;28;20886;-63
2023/08/16 02:00:09;;;;;;;5.68;3.00;;;;;;;-146.25;100.00;52147.19;2079078;28;25760;-64
2023/08/16 02:01:15;;;;;;;5.82;3.17;;;;;;;-146.25;100.00;52153.28;2086900;28;20049;-62
2023/08/16 02:02:19;;;;;;;5.68;3.03;;;;;;;-146.25;100.00;52169.50;2087466;28;24623;-63
2023/08/16 02:03:21;;;;;;;5.88;3.10;;;;;;;-146.25;100.00;52143.13;2080190;28;20045;-63
2023/08/16 02:04:23;;;;;;;5.78;3.83;;;;;;;-146.25;100.00;52147.19;2087381;28;20041;-64
2023/08/16 02:05:25;;;;;;;9.75;4.30;;;;;;;-146.25;100.00;52149.22;2086858;28;27852;-62
2023/08/16 02:06:28;;;;;;;4.18;2.85;;;;;;;-146.25;100.00;52139.09;2087853;28;20030;-63
2023/08/16 02:07:32;;;;;;;3.92;3.13;;;;;;;-146.25;100.00;52165.44;2088033;28;20152;-64
2023/08/16 02:08:35;;;;;;;4.22;2.97;;;;;;;-146.25;100.00;52147.19;2087710;28;20036;-63
2023/08/16 02:09:37;;;;;;;7.35;4.03;;;;;;;-146.25;100.00;52191.81;2088738;28;20984;-62
2023/08/16 02:10:39;;;;;;;7.55;3.78;;;;;;;-146.25;100.00;52147.19;2088067;28;20033;-64
2023/08/16 02:11:43;;;;;;;5.63;3.83;;;;;;;-146.25;100.00;52161.38;2088254;28;27860;-63
2023/08/16 02:12:45;;;;;;;6.18;3.60;;;;;;;-146.25;100.00;52157.34;2087550;28;20053;-63
2023/08/16 02:13:47;;;;;;;5.18;3.42;;;;;;;-146.25;100.00;52161.38;2087895;28;20050;-63
2023/08/16 02:14:49;;;;;;;6.97;3.58;;;;;;;-146.25;100.00;52195.84;2087465;28;20109;-65
2023/08/16 02:16:03;;;;;;;6.10;3.92;;;;;;;-146.25;100.00;52153.28;2079122;28;26616;-64
2023/08/16 02:17:08;;;;;;;6.72;3.88;;;;;;;-146.25;100.00;52169.50;2081393;28;20946;-64
2023/08/16 02:18:10;;;;;;;6.13;3.65;;;;;;;-146.25;100.00;52193.81;2088345;28;20147;-64
2023/08/16 02:19:15;;;;;;;6.82;3.80;;;;;;;-146.25;100.00;52122.88;2087234;28;20065;-63
2023/08/16 02:20:17;;;;;;;9.27;3.97;;;;;;;-146.25;100.00;52175.56;2087338;28;31767;-64
2023/08/16 02:21:19;;;;;;;6.97;3.90;;;;;;;-146.25;100.00;52147.19;2087027;28;20107;-63
2023/08/16 02:22:25;;;;;;;8.43;4.32;;;;;;;-146.25;100.00;52189.78;2087388;28;20037;-64
2023/08/16 02:23:37;;;;;;;6.95;4.10;;;;;;;-146.25;100.00;52173.56;2080095;28;20041;-63
2023/08/16 02:24:41;;;;;;;9.55;3.95;;;;;;;-146.25;100.00;52143.13;2079867;28;20087;-64
2023/08/16 02:25:43;;;;;;;6.30;3.55;;;;;;;-146.25;100.00;52135.03;2079507;28;25848;-63
2023/08/16 02:26:45;;;;;;;7.45;3.17;;;;;;;-146.25;100.00;52187.75;2079686;28;27044;-63
2023/08/16 02:27:47;;;;;;;3.92;3.30;;;;;;;-146.25;100.00;52197.88;2079553;28;32034;-63
2023/08/16 02:28:52;;;;;;;6.22;3.38;;;;;;;-146.25;100.00;52189.78;2087598;28;20085;-66
2023/08/16 02:29:53;;;;;;;5.90;3.50;;;;;;;-146.25;100.00;52181.66;2086810;28;34185;-64
2023/08/16 02:31:05;;;;;;;4.82;3.40;;;;;;;-146.25;100.00;52167.47;2087357;28;20085;-65
2023/08/16 02:32:09;;;;;;;6.82;3.67;;;;;;;-146.25;100.00;52143.13;2079441;28;20160;-64
2023/08/16 02:33:11;;;;;;;5.78;3.25;;;;;;;-146.25;100.00;52177.59;2078878;28;24587;-64
2023/08/16 02:34:13;;;;;;;5.72;4.32;;;;;;;-146.25;100.00;52137.06;2079345;28;25425;-65
2023/08/16 02:35:15;;;;;;;5.78;3.78;;;;;;;-146.25;100.00;52165.44;2078613;28;23910;-64
2023/08/16 02:36:17;;;;;;;6.18;4.65;;;;;;;-146.25;100.00;52137.06;2079183;28;28177;-65
2023/08/16 02:37:19;;;;;;;9.38;5.63;;;;;;;-146.25;100.00;52191.81;2079116;28;20768;-65
2023/08/16 02:38:22;;;;;;;6.20;4.50;;;;;;;-146.25;100.00;52189.78;2079364;28;20168;-65
2023/08/16 02:39:23;;;;;;;8.15;4.93;;;;;;;-146.25;100.00;52197.88;2079496;28;30690;-62
2023/08/16 02:40:25;;;;;;;7.18;4.30;;;;;;;-146.25;100.00;52177.59;2079476;28;35273;-64
2023/08/16 02:41:27;;;;;;;11.75;5.50;;;;;;;-146.25;100.00;52181.66;2087457;28;20042;-64
2023/08/16 02:42:29;;;;;;;7.70;5.82;;;;;;;-146.25;100.00;52179.63;2078737;28;32735;-63
2023/08/16 02:43:30;;;;;;;8.50;4.55;;;;;;;-146.25;100.00;52173.56;2071192;28;29366;-63
2023/08/16 02:44:32;;;;;;;5.60;4.20;;;;;;;-146.25;100.00;52153.28;2080372;28;25468;-64
2023/08/16 02:45:35;;;;;;;7.10;4.63;;;;;;;-146.25;100.00;52181.66;2084362;28;31550;-65
2023/08/16 02:46:39;;;;;;;8.10;4.05;;;;;;;-146.25;100.00;52185.72;2086121;28;29414;-64
2023/08/16 02:47:41;;;;;;;7.68;4.95;;;;;;;-146.25;100.00;52147.19;2083816;28;20049;-63
2023/08/16 02:48:43;;;;;;;8.88;4.50;;;;;;;-146.25;100.00;52177.59;2080583;28;30296;-65
2023/08/16 02:49:44;;;;;;;9.52;4.97;;;;;;;-146.25;100.00;52185.72;2080866;28;29586;-65
2023/08/16 02:50:48;;;;;;;6.88;3.97;;;;;;;-146.25;100.00;52157.34;2084338;28;24080;-63
2023/08/16 02:51:50;;;;;;;8.25;4.63;;;;;;;-146.25;100.00;52147.19;2089063;28;30170;-63
2023/08/16 02:52:51;;;;;;;6.55;3.67;;;;;;;-146.25;100.00;52222.22;2089562;28;20097;-63
2023/08/16 02:53:56;;;;;;;5.97;3.70;;;;;;;-146.25;100.00;52153.28;2088590;28;20140;-64
2023/08/16 02:54:58;;;;;;;4.65;3.60;;;;;;;-146.25;100.00;52183.69;2088455;28;20192;-62
2023/08/16 02:56:00;;;;;;;7.90;4.22;;;;;;;-146.25;100.00;52177.59;2088980;28;20033;-64
2023/08/16 02:57:05;;;;;;;5.65;4.22;;;;;;;-146.25;100.00;52177.59;2088627;28;20096;-63
2023/08/16 02:58:09;;;;;;;6.65;4.43;;;;;;;-146.25;100.00;52173.56;2088763;28;27129;-64
2023/08/16 02:59:15;;;;;;;8.13;4.75;;;;;;;-146.25;100.00;52201.94;2088591;28;26008;-63
2023/08/16 03:00:16;;;;;;;7.28;3.85;;;;;;;-146.25;100.00;52173.56;2080183;28;28002;-66
2023/08/16 03:01:18;;;;;;;7.22;4.68;;;;;;;-146.25;100.00;52163.41;2079806;28;29244;-64
2023/08/16 03:02:22;;;;;;;9.93;4.00;;;;;;;-146.25;100.00;52159.34;2089439;28;20050;-63
2023/08/16 03:03:24;;;;;;;7.68;4.72;;;;;;;-146.25;100.00;52218.16;2079845;28;31517;-63
2023/08/16 03:04:26;;;;;;;8.13;4.60;;;;;;;-146.25;100.00;52161.38;2088387;28;22326;-64
2023/08/16 03:05:28;;;;;;;7.25;4.60;;;;;;;-146.25;100.00;52167.47;2088119;28;31261;-64
2023/08/16 03:06:32;;;;;;;7.38;5.18;;;;;;;-146.25;100.00;52155.31;2088630;28;28215;-64
2023/08/16 03:07:34;;;;;;;12.23;5.50;;;;;;;-146.25;100.00;52201.94;2089314;28;20918;-63
2023/08/16 03:08:36;;;;;;;12.13;5.18;;;;;;;-146.25;100.00;52236.41;2088398;28;29061;-65
2023/08/16 03:09:38;;;;;;;9.32;5.43;;;;;;;-146.25;100.00;52183.69;2088276;28;32886;-65
2023/08/16 03:10:43;;;;;;;9.70;5.82;;;;;;;-146.25;100.00;52137.06;2088347;28;20123;-65
2023/08/16 03:11:49;;;;;;;11.40;7.63;;;;;;;-146.25;100.00;52151.25;2087855;28;26824;-62
2023/08/16 03:12:51;;;;;;;11.15;6.53;;;;;;;-146.25;100.00;52151.25;2088965;28;31849;-65
2023/08/16 03:13:53;;;;;;;10.63;5.68;;;;;;;-146.25;100.00;52185.72;2088130;28;32551;-63
2023/08/16 03:14:55;;;;;;;11.68;6.70;;;;;;;-146.25;100.00;52173.56;2079852;28;33011;-63
2023/08/16 03:15:57;;;;;;;12.35;6.40;;;;;;;-146.25;100.00;52181.66;2088485;28;25878;-64
2023/08/16 03:16:59;;;;;;;9.10;6.20;;;;;;;-146.25;100.00;52216.13;2089457;28;22024;-63
2023/08/16 03:18:03;;;;;;;10.55;5.97;;;;;;;-146.25;100.00;52149.22;2080262;28;20046;-64
2023/08/16 03:19:05;;;;;;;12.93;5.75;;;;;;;-146.25;100.00;52128.94;2072516;28;20086;-63
2023/08/16 03:20:09;;;;;;;8.90;5.82;;;;;;;-146.25;100.00;52157.34;2088760;28;22323;-64
2023/08/16 03:21:12;;;;;;;11.88;5.97;;;;;;;-146.25;100.00;52161.38;2088673;28;20123;-65
2023/08/16 03:22:17;;;;;;;13.88;6.90;;;;;;;-146.25;100.00;52165.44;2088670;28;20107;-64
2023/08/16 03:23:19;;;;;;;11.82;7.13;;;;;;;-146.25;100.00;52153.28;2088683;28;20037;-63
2023/08/16 03:24:22;;;;;;;15.73;8.00;;;;;;;-146.25;100.00;52149.22;2088220;28;20053;-63
2023/08/16 03:25:24;;;;;;;13.00;8.30;;;;;;;-146.25;100.00;52206.00;2080928;28;20054;-65
2023/08/16 03:26:29;;;;;;;11.88;6.07;;;;;;;-146.25;100.00;52199.91;2080435;28;20053;-63
2023/08/16 03:27:31;;;;;;;15.68;6.85;;;;;;;-146.25;100.00;52177.59;2080746;28;20057;-64
2023/08/16 03:28:33;;;;;;;10.30;6.72;;;;;;;-146.25;100.00;52120.84;2088644;28;20103;-64
2023/08/16 03:29:36;;;;;;;11.52;7.75;;;;;;;-146.25;100.00;52185.72;2088596;28;20080;-65
2023/08/16 03:30:39;;;;;;;13.88;7.18;;;;;;;-146.25;100.00;52151.25;2080353;28;20159;-65
2023/08/16 03:31:41;;;;;;;8.10;6.32;;;;;;;-146.25;100.00;52183.69;2079198;28;20129;-65
2023/08/16 03:32:43;;;;;;;9.43;7.05;;;;;;;-146.25;100.00;52206.00;2080587;28;20053;-64
2023/08/16 03:33:46;;;;;;;9.65;5.80;;;;;;;-146.25;100.00;52128.94;2088333;28;20173;-64
2023/08/16 03:34:48;;;;;;;9.02;5.40;;;;;;;-146.25;100.00;52197.88;2088392;28;20037;-65
2023/08/16 03:35:50;;;;;;;9.98;5.32;;;;;;;-146.25;100.00;52203.97;2079968;28;23043;-63
2023/08/16 03:36:54;;;;;;;9.35;5.25;;;;;;;-146.25;100.00;52155.31;2088140;28;20167;-63
2023/08/16 03:37:56;;;;;;;8.73;5.00;;;;;;;-146.25;100.00;52224.25;2088562;28;20046;-63
2023/08/16 03:38:59;;;;;;;7.55;4.75;;;;;;;-146.25;100.00;52208.03;2080572;28;20089;-64
2023/08/16 03:40:01;;;;;;;9.93;5.22;;;;;;;-146.25;100.00;52208.03;2087420;28;35152;-63
2023/08/16 03:41:03;;;;;;;11.75;5.43;;;;;;;-146.25;100.00;52187.75;2089479;28;23398;-64
2023/08/16 03:42:05;;;;;;;8.68;4.80;;;;;;;-146.25;100.00;52165.44;2088264;28;20058;-63
2023/08/16 03:43:07;;;;;;;8.45;5.20;;;;;;;-146.25;100.00;52171.53;2088963;28;20111;-64
2023/08/16 03:44:08;;;;;;;7.47;4.55;;;;;;;-146.25;100.00;52210.03;2088696;28;28014;-64
2023/08/16 03:45:10;;;;;;;7.10;5.53;;;;;;;-146.25;100.00;52195.84;2088574;28;31652;-63
2023/08/16 03:46:13;;;;;;;8.20;5.32;;;;;;;-146.25;100.00;52181.66;2088556;28;20049;-64
2023/08/16 03:47:15;;;;;;;7.15;4.65;;;;;;;-146.25;100.00;52161.38;2088148;28;22224;-65
2023/08/16 03:48:17;;;;;;;7.35;4.50;;;;;;;-146.25;100.00;52187.75;2088039;28;31047;-66
2023/08/16 03:49:19;;;;;;;8.70;4.72;;;;;;;-146.25;100.00;52185.72;2087899;28;28278;-66
2023/08/16 03:50:21;;;;;;;7.45;4.43;;;;;;;-146.25;100.00;52214.09;2079989;28;20042;-65
2023/08/16 03:51:22;;;;;;;8.25;4.40;;;;;;;-146.25;100.00;52210.03;2080541;28;21022;-65
2023/08/16 03:52:24;;;;;;;8.65;4.18;;;;;;;-146.25;100.00;52189.78;2088217;28;29183;-63
2023/08/16 03:53:26;;;;;;;5.30;3.83;;;;;;;-146.25;100.00;52181.66;2088053;28;20155;-64
2023/08/16 03:54:30;;;;;;;4.40;3.33;;;;;;;-146.25;100.00;52181.66;2087966;28;31868;-64
2023/08/16 03:55:32;;;;;;;6.75;3.90;;;;;;;-146.25;100.00;52175.56;2089283;28;20838;-64
2023/08/16 03:56:33;;;;;;;4.60;3.67;;;;;;;-146.25;100.00;52193.81;2087476;28;31620;-65
2023/08/16 03:57:35;;;;;;;8.02;3.97;;;;;;;-146.25;100.00;52153.28;2087428;28;28397;-65
2023/08/16 03:58:37;;;;;;;5.00;3.97;;;;;;;-146.25;100.00;52179.63;2088378;28;30902;-66
2023/08/16 03:59:39;;;;;;;7.35;4.57;;;;;;;-146.25;100.00;52218.16;2088250;28;20045;-65
2023/08/16 04:00:40;;;;;;;8.73;5.07;;;;;;;-146.25;100.00;52175.56;2088027;28;32012;-65
2023/08/16 04:01:43;;;;;;;8.68;4.55;;;;;;;-146.25;100.00;52165.44;2096420;28;30559;-63
2023/08/16 04:02:45;;;;;;;6.68;4.25;;;;;;;-146.25;100.00;52175.56;2088786;28;20078;-63
2023/08/16 04:03:49;;;;;;;9.40;4.47;;;;;;;-146.25;100.00;52197.88;2088932;28;20054;-64
2023/08/16 04:04:53;;;;;;;6.72;4.40;;;;;;;-146.25;100.00;52224.25;2087792;28;27037;-65
2023/08/16 04:05:55;;;;;;;8.43;5.22;;;;;;;-146.25;100.00;52169.50;2088016;28;22004;-63
2023/08/16 04:07:00;;;;;;;9.30;5.00;;;;;;;-146.25;100.00;52210.03;2087821;28;25543;-64
2023/08/16 04:08:02;;;;;;;8.18;4.65;;;;;;;-146.25;100.00;52141.13;2087828;28;31706;-64
2023/08/16 04:09:04;;;;;;;8.10;5.53;;;;;;;-146.25;100.00;52163.41;2088485;28;32086;-64
2023/08/16 04:10:07;;;;;;;9.68;5.15;;;;;;;-146.25;100.00;52175.56;2088916;28;26347;-64
2023/08/16 04:11:12;;;;;;;6.28;5.05;;;;;;;-146.25;100.00;52153.28;2087395;28;35247;-63
2023/08/16 04:12:13;;;;;;;10.13;5.55;;;;;;;-146.25;100.00;52264.78;2088167;28;27235;-65
2023/08/16 04:13:16;;;;;;;7.13;4.88;;;;;;;-146.25;100.00;52171.53;2088314;28;30926;-65
2023/08/16 04:14:18;;;;;;;4.90;4.35;;;;;;;-146.25;100.00;52199.91;2088850;28;24697;-64
2023/08/16 04:15:20;;;;;;;8.23;5.22;;;;;;;-146.25;100.00;52191.81;2087376;28;31834;-64
2023/08/16 04:16:22;;;;;;;6.50;4.82;;;;;;;-146.25;100.00;52165.44;2087911;28;29289;-65
2023/08/16 04:17:24;;;;;;;9.10;5.10;;;;;;;-146.25;100.00;52201.94;2088464;28;28743;-65
2023/08/16 04:18:27;;;;;;;7.10;4.18;;;;;;;-146.25;100.00;52181.66;2088312;28;20168;-65
2023/08/16 04:19:31;;;;;;;5.25;4.40;;;;;;;-146.25;100.00;52203.97;2088793;28;20143;-65
2023/08/16 04:20:33;;;;;;;10.65;5.30;;;;;;;-146.25;100.00;52167.47;2087903;28;32172;-65
2023/08/16 04:21:34;;;;;;;9.30;4.72;;;;;;;-146.25;100.00;52173.56;2079731;28;37133;-65
2023/08/16 04:22:38;;;;;;;7.68;5.05;;;;;;;-146.25;100.00;52214.09;2088311;28;20937;-69
2023/08/16 04:23:39;;;;;;;10.82;5.70;;;;;;;-146.25;100.00;52187.75;2088171;28;20046;-69
2023/08/16 04:24:41;;;;;;;8.85;5.47;;;;;;;-146.25;100.00;52183.69;2088089;28;20163;-69
2023/08/16 04:25:43;;;;;;;7.07;4.85;;;;;;;-146.25;100.00;52193.81;2088804;28;21807;-69
2023/08/16 04:26:45;;;;;;;8.38;5.78;;;;;;;-146.25;100.00;52222.22;2089207;28;20736;-70
2023/08/16 04:27:49;;;;;;;8.75;5.55;;;;;;;-146.25;100.00;52199.91;2087991;28;20223;-70
2023/08/16 04:28:51;;;;;;;9.82;6.30;;;;;;;-146.25;100.00;52163.41;2079849;28;21036;-70
2023/08/16 04:29:53;;;;;;;5.88;4.72;;;;;;;-146.25;100.00;52206.00;2080027;28;21060;-70
2023/08/16 04:30:57;;;;;;;6.90;5.47;;;;;;;-146.25;100.00;52181.66;2079998;28;20176;-69
2023/08/16 04:31:59;;;;;;;8.40;5.18;;;;;;;-146.25;100.00;52185.72;2080401;28;20349;-70
2023/08/16 04:33:01;;;;;;;7.93;5.00;;;;;;;-146.25;100.00;52201.94;2079961;28;20124;-69
2023/08/16 04:34:03;;;;;;;8.40;5.10;;;;;;;-146.25;100.00;52232.34;2080043;28;21879;-69
2023/08/16 04:35:09;;;;;;;6.80;4.82;;;;;;;-146.25;100.00;52208.03;2087994;28;20142;-69
2023/08/16 04:36:10;;;;;;;8.02;5.30;;;;;;;-146.25;100.00;52193.81;2088195;28;20052;-69
2023/08/16 04:37:12;;;;;;;7.88;4.82;;;;;;;-146.25;100.00;52224.25;2087563;28;27866;-69
2023/08/16 04:38:16;;;;;;;8.68;4.78;;;;;;;-146.25;100.00;52173.56;2087989;28;23021;-69
2023/08/16 04:39:18;;;;;;;9.65;4.38;;;;;;;-146.25;100.00;52199.91;2088306;28;20049;-70
2023/08/16 04:40:21;;;;;;;8.73;4.15;;;;;;;-146.25;100.00;52201.94;2087220;28;20030;-69
2023/08/16 04:41:23;;;;;;;5.68;3.80;;;;;;;-146.25;100.00;52208.03;2087550;28;20100;-69
2023/08/16 04:42:25;;;;;;;3.83;3.30;;;;;;;-146.25;100.00;52197.88;2079419;28;20053;-69
2023/08/16 04:43:32;;;;;;;6.43;2.92;;;;;;;-146.25;100.00;52212.06;2087211;28;34464;-70
2023/08/16 04:44:34;;;;;;;7.35;3.15;;;;;;;-146.25;100.00;52203.97;2088183;28;31425;-68
2023/08/16 04:45:35;;;;;;;6.35;2.92;;;;;;;-146.25;100.00;52191.81;2087692;28;31807;-68
2023/08/16 04:46:39;;;;;;;6.20;2.60;;;;;;;-146.25;100.00;52216.13;2088212;28;29745;-68
2023/08/16 04:47:41;;;;;;;2.53;2.03;;;;;;;-146.25;100.00;52187.75;2087799;28;29948;-68
2023/08/16 04:48:45;;;;;;;3.33;1.85;;;;;;;-146.25;100.00;52218.16;2087990;28;20164;-68